Terminal Aerodrome Forecast
Issued by NWS

Home | Current Version | Previous Version | Text Only | Print | Product List | Glossary On
Versions: 1 2 3 4 5 6 7 8 9 10 11 12 13 14 15 16 17 18 19 20
530
FTUS44 KCRP 041120
TAFALI
TAF
KALI 041120Z 0412/0512 01010KT 5SM -SHRA BR BKN005 OVC070
      TEMPO 0412/0415 3SM TSRA SCT005 BKN025CB OVC070
     FM041800 02015KT 6SM -SHRA BR SCT005 BKN013 OVC070
      TEMPO 0505/0509 4SM SHRA BR BKN008
     FM050900 33014KT P6SM OVC008=

USA.gov is the U.S. government's official web portal to all federal, state and local government web resources and services.